sensor_id;sensor_type;location;lat;lon;timestamp;pressure;altitude;pressure_sealevel;temperature;humidity
13734;BME280;43298;52.560;13.508;2022-11-20T00:01:20;100352.31;;;0.57;100.00
13734;BME280;43298;52.560;13.508;2022-11-20T00:03:47;100354.84;;;0.57;100.00
13734;BME280;43298;52.560;13.508;2022-11-20T00:06:16;100354.84;;;0.57;100.00
13734;BME280;43298;52.560;13.508;2022-11-20T00:08:43;100358.22;;;0.58;100.00
13734;BME280;43298;52.560;13.508;2022-11-20T00:11:18;100363.31;;;0.56;100.00
13734;BME280;43298;52.560;13.508;2022-11-20T00:13:47;100359.94;;;0.54;100.00
13734;BME280;43298;52.560;13.508;2022-11-20T00:16:16;100350.59;;;0.53;100.00
13734;BME280;43298;52.560;13.508;2022-11-20T00:18:42;100356.56;;;0.54;100.00
13734;BME280;43298;52.560;13.508;2022-11-20T00:21:19;100356.56;;;0.54;100.00
13734;BME280;43298;52.560;13.508;2022-11-20T00:23:45;100351.47;;;0.54;100.00
13734;BME280;43298;52.560;13.508;2022-11-20T00:26:16;100359.09;;;0.52;100.00
13734;BME280;43298;52.560;13.508;2022-11-20T00:28:43;100359.09;;;0.54;100.00
13734;BME280;43298;52.560;13.508;2022-11-20T00:31:14;100357.41;;;0.53;100.00
13734;BME280;43298;52.560;13.508;2022-11-20T00:33:42;100358.25;;;0.52;100.00
13734;BME280;43298;52.560;13.508;2022-11-20T00:36:14;100350.66;;;0.50;100.00
13734;BME280;43298;52.560;13.508;2022-11-20T00:38:41;100355.72;;;0.52;100.00
13734;BME280;43298;52.560;13.508;2022-11-20T00:41:10;100360.78;;;0.52;100.00
13734;BME280;43298;52.560;13.508;2022-11-20T00:43:37;100357.44;;;0.51;100.00
13734;BME280;43298;52.560;13.508;2022-11-20T00:46:10;100363.38;;;0.50;100.00
13734;BME280;43298;52.560;13.508;2022-11-20T00:48:37;100366.75;;;0.51;100.00
13734;BME280;43298;52.560;13.508;2022-11-20T00:51:04;100363.38;;;0.50;100.00
13734;BME280;43298;52.560;13.508;2022-11-20T00:53:30;100359.97;;;0.50;100.00
13734;BME280;43298;52.560;13.508;2022-11-20T00:56:03;100355.75;;;0.50;100.00
13734;BME280;43298;52.560;13.508;2022-11-20T00:58:32;100355.75;;;0.49;100.00
13734;BME280;43298;52.560;13.508;2022-11-20T01:03:35;100363.41;;;0.47;100.00
13734;BME280;43298;52.560;13.508;2022-11-20T01:06:05;100360.84;;;0.49;100.00
13734;BME280;43298;52.560;13.508;2022-11-20T01:08:34;100359.13;;;0.46;100.00
13734;BME280;43298;52.560;13.508;2022-11-20T01:11:11;100355.75;;;0.47;100.00
13734;BME280;43298;52.560;13.508;2022-11-20T01:13:37;100354.06;;;0.46;100.00
13734;BME280;43298;52.560;13.508;2022-11-20T01:16:21;100357.44;;;0.47;100.00
13734;BME280;43298;52.560;13.508;2022-11-20T01:18:50;100355.78;;;0.44;100.00
13734;BME280;43298;52.560;13.508;2022-11-20T01:21:32;100355.78;;;0.46;100.00
13734;BME280;43298;52.560;13.508;2022-11-20T01:23:59;100351.50;;;0.46;100.00
13734;BME280;43298;52.560;13.508;2022-11-20T01:26:31;100356.63;;;0.45;100.00
13734;BME280;43298;52.560;13.508;2022-11-20T01:28:59;100359.13;;;0.46;100.00
13734;BME280;43298;52.560;13.508;2022-11-20T01:31:29;100354.06;;;0.46;100.00
13734;BME280;43298;52.560;13.508;2022-11-20T01:33:58;100349.81;;;0.47;100.00
13734;BME280;43298;52.560;13.508;2022-11-20T01:36:27;100353.22;;;0.46;100.00
13734;BME280;43298;52.560;13.508;2022-11-20T01:38:59;100344.75;;;0.47;100.00
13734;BME280;43298;52.560;13.508;2022-11-20T01:41:28;100349.81;;;0.47;100.00
13734;BME280;43298;52.560;13.508;2022-11-20T01:44:17;100352.34;;;0.48;100.00
13734;BME280;43298;52.560;13.508;2022-11-20T01:47:09;100349.81;;;0.48;100.00
13734;BME280;43298;52.560;13.508;2022-11-20T01:50:26;100340.53;;;0.44;100.00
13734;BME280;43298;52.560;13.508;2022-11-20T01:52:39;100337.13;;;0.45;100.00
13734;BME280;43298;52.560;13.508;2022-11-20T01:55:18;100338.84;;;0.43;100.00
13734;BME280;43298;52.560;13.508;2022-11-20T01:57:45;100339.66;;;0.44;100.00
13734;BME280;43298;52.560;13.508;2022-11-20T02:00:16;100345.59;;;0.44;100.00
13734;BME280;43298;52.560;13.508;2022-11-20T02:02:52;100340.53;;;0.44;100.00
13734;BME280;43298;52.560;13.508;2022-11-20T02:05:45;100335.44;;;0.44;100.00
13734;BME280;43298;52.560;13.508;2022-11-20T02:08:13;100332.91;;;0.43;100.00
13734;BME280;43298;52.560;13.508;2022-11-20T02:10:39;100334.59;;;0.42;100.00
13734;BME280;43298;52.560;13.508;2022-11-20T02:13:05;100334.59;;;0.42;100.00
13734;BME280;43298;52.560;13.508;2022-11-20T02:15:50;100327.84;;;0.40;100.00
13734;BME280;43298;52.560;13.508;2022-11-20T02:18:19;100327.84;;;0.40;100.00
13734;BME280;43298;52.560;13.508;2022-11-20T02:20:48;100322.75;;;0.40;100.00
13734;BME280;43298;52.560;13.508;2022-11-20T02:25:54;100330.38;;;0.41;100.00
13734;BME280;43298;52.560;13.508;2022-11-20T02:28:21;100330.38;;;0.41;100.00
13734;BME280;43298;52.560;13.508;2022-11-20T02:30:47;100329.53;;;0.39;100.00
13734;BME280;43298;52.560;13.508;2022-11-20T02:33:13;100326.16;;;0.39;100.00
13734;BME280;43298;52.560;13.508;2022-11-20T02:35:46;100334.66;;;0.38;100.00
13734;BME280;43298;52.560;13.508;2022-11-20T02:38:13;100335.47;;;0.40;100.00
13734;BME280;43298;52.560;13.508;2022-11-20T02:40:40;100336.31;;;0.39;100.00
13734;BME280;43298;52.560;13.508;2022-11-20T02:43:06;100337.16;;;0.39;100.00
13734;BME280;43298;52.560;13.508;2022-11-20T02:45:32;100327.84;;;0.40;100.00
13734;BME280;43298;52.560;13.508;2022-11-20T02:47:57;100326.16;;;0.39;100.00
13734;BME280;43298;52.560;13.508;2022-11-20T02:50:23;100332.06;;;0.39;100.00
13734;BME280;43298;52.560;13.508;2022-11-20T02:52:49;100325.31;;;0.38;100.00
13734;BME280;43298;52.560;13.508;2022-11-20T02:55:15;100328.72;;;0.36;100.00
13734;BME280;43298;52.560;13.508;2022-11-20T02:57:41;100327.84;;;0.37;100.00
13734;BME280;43298;52.560;13.508;2022-11-20T03:00:10;100325.31;;;0.35;100.00
13734;BME280;43298;52.560;13.508;2022-11-20T03:02:36;100327.84;;;0.37;100.00
13734;BME280;43298;52.560;13.508;2022-11-20T03:05:02;100322.78;;;0.37;100.00
13734;BME280;43298;52.560;13.508;2022-11-20T03:07:28;100318.53;;;0.37;100.00
13734;BME280;43298;52.560;13.508;2022-11-20T03:09:54;100319.41;;;0.38;100.00
13734;BME280;43298;52.560;13.508;2022-11-20T03:12:20;100320.22;;;0.38;100.00
13734;BME280;43298;52.560;13.508;2022-11-20T03:14:45;100316.84;;;0.38;100.00
13734;BME280;43298;52.560;13.508;2022-11-20T03:17:11;100318.53;;;0.37;100.00
13734;BME280;43298;52.560;13.508;2022-11-20T03:19:37;100311.78;;;0.36;100.00
13734;BME280;43298;52.560;13.508;2022-11-20T03:22:03;100304.16;;;0.35;100.00
13734;BME280;43298;52.560;13.508;2022-11-20T03:24:29;100311.78;;;0.35;100.00
13734;BME280;43298;52.560;13.508;2022-11-20T03:26:54;100310.06;;;0.35;100.00
13734;BME280;43298;52.560;13.508;2022-11-20T03:29:20;100308.38;;;0.34;100.00
13734;BME280;43298;52.560;13.508;2022-11-20T03:31:46;100311.75;;;0.38;100.00
13734;BME280;43298;52.560;13.508;2022-11-20T03:34:12;100310.06;;;0.37;100.00
13734;BME280;43298;52.560;13.508;2022-11-20T03:36:41;100310.91;;;0.36;100.00
13734;BME280;43298;52.560;13.508;2022-11-20T03:39:08;100300.75;;;0.34;100.00
13734;BME280;43298;52.560;13.508;2022-11-20T03:41:40;100305.81;;;0.37;100.00
13734;BME280;43298;52.560;13.508;2022-11-20T03:44:09;100313.44;;;0.37;100.00
13734;BME280;43298;52.560;13.508;2022-11-20T03:46:36;100299.06;;;0.36;100.00
13734;BME280;43298;52.560;13.508;2022-11-20T03:49:02;100303.28;;;0.37;100.00
13734;BME280;43298;52.560;13.508;2022-11-20T03:51:34;100295.66;;;0.37;100.00
13734;BME280;43298;52.560;13.508;2022-11-20T03:54:06;100302.44;;;0.35;100.00
13734;BME280;43298;52.560;13.508;2022-11-20T03:56:36;100301.63;;;0.33;100.00
13734;BME280;43298;52.560;13.508;2022-11-20T03:59:03;100293.13;;;0.33;100.00
13734;BME280;43298;52.560;13.508;2022-11-20T04:01:35;100308.38;;;0.34;100.00
13734;BME280;43298;52.560;13.508;2022-11-20T04:04:03;100304.19;;;0.32;100.00
13734;BME280;43298;52.560;13.508;2022-11-20T04:06:34;100303.31;;;0.31;100.00
13734;BME280;43298;52.560;13.508;2022-11-20T04:09:00;100296.53;;;0.32;100.00
13734;BME280;43298;52.560;13.508;2022-11-20T04:11:33;100298.22;;;0.31;100.00
13734;BME280;43298;52.560;13.508;2022-11-20T04:14:02;100293.16;;;0.31;100.00
13734;BME280;43298;52.560;13.508;2022-11-20T04:16:31;100295.69;;;0.31;100.00
13734;BME280;43298;52.560;13.508;2022-11-20T04:19:00;100299.94;;;0.32;100.00
13734;BME280;43298;52.560;13.508;2022-11-20T04:21:27;100301.63;;;0.33;100.00
13734;BME280;43298;52.560;13.508;2022-11-20T04:23:54;100305.03;;;0.32;100.00
13734;BME280;43298;52.560;13.508;2022-11-20T04:26:22;100309.25;;;0.32;100.00
13734;BME280;43298;52.560;13.508;2022-11-20T04:28:49;100308.41;;;0.33;100.00
13734;BME280;43298;52.560;13.508;2022-11-20T04:31:27;100309.25;;;0.32;100.00
13734;BME280;43298;52.560;13.508;2022-11-20T04:33:53;100308.41;;;0.30;100.00
13734;BME280;43298;52.560;13.508;2022-11-20T04:36:25;100306.72;;;0.30;100.00
13734;BME280;43298;52.560;13.508;2022-11-20T04:38:56;100308.41;;;0.28;100.00
13734;BME280;43298;52.560;13.508;2022-11-20T04:41:25;100305.09;;;0.22;100.00
13734;BME280;43298;52.560;13.508;2022-11-20T04:43:55;100305.97;;;0.19;100.00
13734;BME280;43298;52.560;13.508;2022-11-20T04:46:31;100297.47;;;0.19;100.00
13734;BME280;43298;52.560;13.508;2022-11-20T04:48:57;100297.47;;;0.20;100.00
13734;BME280;43298;52.560;13.508;2022-11-20T04:51:23;100302.56;;;0.19;100.00
13734;BME280;43298;52.560;13.508;2022-11-20T04:53:49;100297.50;;;0.16;100.00
13734;BME280;43298;52.560;13.508;2022-11-20T04:56:16;100297.56;;;0.11;100.00
13734;BME280;43298;52.560;13.508;2022-11-20T04:58:42;100295.03;;;0.08;100.00
13734;BME280;43298;52.560;13.508;2022-11-20T05:03:41;100292.50;;;0.03;100.00
13734;BME280;43298;52.560;13.508;2022-11-20T05:06:08;100290.84;;;0.03;100.00
13734;BME280;43298;52.560;13.508;2022-11-20T05:08:34;100281.53;;;0.00;100.00
13734;BME280;43298;52.560;13.508;2022-11-20T05:11:10;100281.53;;;-0.02;100.00
13734;BME280;43298;52.560;13.508;2022-11-20T05:13:39;100279.81;;;-0.01;100.00
13734;BME280;43298;52.560;13.508;2022-11-20T05:16:08;100276.47;;;-0.02;100.00
13734;BME280;43298;52.560;13.508;2022-11-20T05:18:35;100278.16;;;-0.02;100.00
13734;BME280;43298;52.560;13.508;2022-11-20T05:21:02;100272.22;;;-0.03;100.00
13734;BME280;43298;52.560;13.508;2022-11-20T05:23:30;100276.47;;;-0.03;100.00
13734;BME280;43298;52.560;13.508;2022-11-20T05:25:57;100269.66;;;-0.01;100.00
13734;BME280;43298;52.560;13.508;2022-11-20T05:28:24;100276.47;;;-0.02;100.00
13734;BME280;43298;52.560;13.508;2022-11-20T05:30:50;100272.22;;;-0.03;100.00
13734;BME280;43298;52.560;13.508;2022-11-20T05:33:16;100274.75;;;-0.01;100.00
13734;BME280;43298;52.560;13.508;2022-11-20T05:35:42;100273.06;;;-0.02;100.00
13734;BME280;43298;52.560;13.508;2022-11-20T05:38:09;100273.06;;;-0.02;100.00
13734;BME280;43298;52.560;13.508;2022-11-20T05:40:34;100274.75;;;-0.01;100.00
13734;BME280;43298;52.560;13.508;2022-11-20T05:43:01;100277.28;;;-0.03;100.00
13734;BME280;43298;52.560;13.508;2022-11-20T05:45:27;100269.66;;;-0.03;100.00
13734;BME280;43298;52.560;13.508;2022-11-20T05:47:53;100264.56;;;-0.01;100.00
13734;BME280;43298;52.560;13.508;2022-11-20T05:50:19;100265.44;;;-0.02;100.00
13734;BME280;43298;52.560;13.508;2022-11-20T05:52:44;100263.75;;;-0.03;100.00
13734;BME280;43298;52.560;13.508;2022-11-20T05:55:10;100275.59;;;-0.01;100.00
13734;BME280;43298;52.560;13.508;2022-11-20T05:57:36;100259.50;;;-0.01;100.00
13734;BME280;43298;52.560;13.508;2022-11-20T06:00:03;100252.72;;;0.01;100.00
13734;BME280;43298;52.560;13.508;2022-11-20T06:02:29;100257.81;;;0.01;100.00
13734;BME280;43298;52.560;13.508;2022-11-20T06:04:55;100254.41;;;0.02;100.00
13734;BME280;43298;52.560;13.508;2022-11-20T06:07:21;100255.25;;;0.04;100.00
13734;BME280;43298;52.560;13.508;2022-11-20T06:09:46;100250.97;;;0.06;100.00
13734;BME280;43298;52.560;13.508;2022-11-20T06:12:12;100255.19;;;0.07;100.00
13734;BME280;43298;52.560;13.508;2022-11-20T06:14:38;100250.97;;;0.06;100.00
13734;BME280;43298;52.560;13.508;2022-11-20T06:17:04;100254.38;;;0.07;100.00
13734;BME280;43298;52.560;13.508;2022-11-20T06:19:29;100256.91;;;0.07;100.00
13734;BME280;43298;52.560;13.508;2022-11-20T06:21:55;100256.91;;;0.07;100.00
13734;BME280;43298;52.560;13.508;2022-11-20T06:24:21;100255.19;;;0.07;100.00
13734;BME280;43298;52.560;13.508;2022-11-20T06:26:47;100254.38;;;0.08;100.00
13734;BME280;43298;52.560;13.508;2022-11-20T06:29:13;100256.03;;;0.09;100.00
13734;BME280;43298;52.560;13.508;2022-11-20T06:31:38;100258.56;;;0.12;100.00
13734;BME280;43298;52.560;13.508;2022-11-20T06:34:05;100259.44;;;0.11;100.00
13734;BME280;43298;52.560;13.508;2022-11-20T06:36:33;100261.09;;;0.12;100.00
13734;BME280;43298;52.560;13.508;2022-11-20T06:38:59;100260.25;;;0.10;100.00
13734;BME280;43298;52.560;13.508;2022-11-20T06:41:26;100260.28;;;0.08;100.00
13734;BME280;43298;52.560;13.508;2022-11-20T06:43:53;100262.81;;;0.07;100.00
13734;BME280;43298;52.560;13.508;2022-11-20T06:46:20;100261.16;;;0.06;100.00
13734;BME280;43298;52.560;13.508;2022-11-20T06:48:47;100259.47;;;0.05;100.00
13734;BME280;43298;52.560;13.508;2022-11-20T06:51:13;100256.06;;;0.06;100.00
13734;BME280;43298;52.560;13.508;2022-11-20T06:53:39;100258.59;;;0.06;100.00
13734;BME280;43298;52.560;13.508;2022-11-20T06:56:06;100254.38;;;0.05;100.00
13734;BME280;43298;52.560;13.508;2022-11-20T06:58:34;100250.16;;;0.06;100.00
13734;BME280;43298;52.560;13.508;2022-11-20T07:01:07;100257.75;;;0.07;100.00
13734;BME280;43298;52.560;13.508;2022-11-20T07:03:34;100255.25;;;0.06;100.00
13734;BME280;43298;52.560;13.508;2022-11-20T07:06:01;100258.59;;;0.06;100.00
13734;BME280;43298;52.560;13.508;2022-11-20T07:08:27;100249.28;;;0.05;100.00
13734;BME280;43298;52.560;13.508;2022-11-20T07:10:58;100251.84;;;0.05;100.00
13734;BME280;43298;52.560;13.508;2022-11-20T07:13:25;100245.06;;;0.06;100.00
13734;BME280;43298;52.560;13.508;2022-11-20T07:15:51;100250.97;;;0.08;100.00
13734;BME280;43298;52.560;13.508;2022-11-20T07:18:17;100254.38;;;0.07;100.00
13734;BME280;43298;52.560;13.508;2022-11-20T07:20:43;100253.50;;;0.11;100.00
13734;BME280;43298;52.560;13.508;2022-11-20T07:23:09;100256.03;;;0.09;100.00
13734;BME280;43298;52.560;13.508;2022-11-20T07:25:35;100250.94;;;0.11;100.00
13734;BME280;43298;52.560;13.508;2022-11-20T07:28:02;100254.34;;;0.11;100.00
13734;BME280;43298;52.560;13.508;2022-11-20T07:30:29;100254.28;;;0.14;100.00
13734;BME280;43298;52.560;13.508;2022-11-20T07:32:56;100252.59;;;0.15;100.00
13734;BME280;43298;52.560;13.508;2022-11-20T07:35:23;100253.44;;;0.18;100.00
13734;BME280;43298;52.560;13.508;2022-11-20T07:37:49;100245.81;;;0.18;100.00
13734;BME280;43298;52.560;13.508;2022-11-20T07:40:19;100242.44;;;0.16;100.00
13734;BME280;43298;52.560;13.508;2022-11-20T07:42:49;100252.59;;;0.19;100.00
13734;BME280;43298;52.560;13.508;2022-11-20T07:45:16;100242.41;;;0.22;100.00
13734;BME280;43298;52.560;13.508;2022-11-20T07:47:42;100245.75;;;0.24;100.00
13734;BME280;43298;52.560;13.508;2022-11-20T07:50:08;100237.25;;;0.27;100.00
13734;BME280;43298;52.560;13.508;2022-11-20T07:52:34;100231.34;;;0.28;100.00
13734;BME280;43298;52.560;13.508;2022-11-20T07:55:00;100241.47;;;0.31;100.00
13734;BME280;43298;52.560;13.508;2022-11-20T07:57:26;100234.69;;;0.31;100.00
13734;BME280;43298;52.560;13.508;2022-11-20T07:59:51;100237.97;;;0.39;100.00
13734;BME280;43298;52.560;13.508;2022-11-20T08:02:17;100237.97;;;0.41;100.00
13734;BME280;43298;52.560;13.508;2022-11-20T08:04:43;100238.03;;;0.36;100.00
13734;BME280;43298;52.560;13.508;2022-11-20T08:07:08;100236.34;;;0.35;100.00
13734;BME280;43298;52.560;13.508;2022-11-20T08:09:34;100236.34;;;0.35;100.00
13734;BME280;43298;52.560;13.508;2022-11-20T08:12:00;100236.31;;;0.37;100.00
13734;BME280;43298;52.560;13.508;2022-11-20T08:14:44;100226.25;;;0.29;100.00
13734;BME280;43298;52.560;13.508;2022-11-20T08:17:10;100229.59;;;0.31;100.00
13734;BME280;43298;52.560;13.508;2022-11-20T08:19:36;100223.69;;;0.31;100.00
13734;BME280;43298;52.560;13.508;2022-11-20T08:22:01;100223.69;;;0.32;100.00
13734;BME280;43298;52.560;13.508;2022-11-20T08:24:27;100214.31;;;0.34;100.00
13734;BME280;43298;52.560;13.508;2022-11-20T08:26:53;100223.69;;;0.29;100.00
13734;BME280;43298;52.560;13.508;2022-11-20T08:29:19;100216.00;;;0.34;100.00
13734;BME280;43298;52.560;13.508;2022-11-20T08:31:45;100212.66;;;0.30;100.00
13734;BME280;43298;52.560;13.508;2022-11-20T08:34:10;100211.91;;;0.22;100.00
13734;BME280;43298;52.560;13.508;2022-11-20T08:36:37;100205.16;;;0.18;100.00
13734;BME280;43298;52.560;13.508;2022-11-20T08:39:03;100205.16;;;0.15;100.00
13734;BME280;43298;52.560;13.508;2022-11-20T08:41:30;100205.19;;;0.14;100.00
13734;BME280;43298;52.560;13.508;2022-11-20T08:44:06;100198.38;;;0.16;100.00
13734;BME280;43298;52.560;13.508;2022-11-20T08:46:42;100202.63;;;0.15;100.00
13734;BME280;43298;52.560;13.508;2022-11-20T08:49:11;100211.00;;;0.25;100.00
13734;BME280;43298;52.560;13.508;2022-11-20T08:51:39;100203.34;;;0.29;100.00
13734;BME280;43298;52.560;13.508;2022-11-20T08:54:06;100202.38;;;0.39;100.00
13734;BME280;43298;52.560;13.508;2022-11-20T08:56:34;100198.97;;;0.45;100.00
13734;BME280;43298;52.560;13.508;2022-11-20T08:59:00;100198.84;;;0.58;100.00
13734;BME280;43298;52.560;13.508;2022-11-20T09:01:27;100205.53;;;0.65;100.00
13734;BME280;43298;52.560;13.508;2022-11-20T09:03:57;100206.41;;;0.63;100.00
13734;BME280;43298;52.560;13.508;2022-11-20T09:06:25;100203.88;;;0.64;100.00
13734;BME280;43298;52.560;13.508;2022-11-20T09:08:54;100208.97;;;0.63;100.00
13734;BME280;43298;52.560;13.508;2022-11-20T09:11:21;100219.06;;;0.67;100.00
13734;BME280;43298;52.560;13.508;2022-11-20T09:13:47;100219.94;;;0.68;100.00
13734;BME280;43298;52.560;13.508;2022-11-20T09:16:13;100219.06;;;0.69;100.00
13734;BME280;43298;52.560;13.508;2022-11-20T09:18:39;100224.16;;;0.66;100.00
13734;BME280;43298;52.560;13.508;2022-11-20T09:21:10;100218.31;;;0.61;100.00
13734;BME280;43298;52.560;13.508;2022-11-20T09:23:37;100217.56;;;0.50;100.00
13734;BME280;43298;52.560;13.508;2022-11-20T09:26:11;100229.38;;;0.57;100.00
13734;BME280;43298;52.560;13.508;2022-11-20T09:28:37;100226.78;;;0.60;100.00
13734;BME280;43298;52.560;13.508;2022-11-20T09:31:23;100223.25;;;0.73;100.00
13734;BME280;43298;52.560;13.508;2022-11-20T09:33:49;100224.13;;;0.72;100.00
13734;BME280;43298;52.560;13.508;2022-11-20T09:36:15;100216.53;;;0.67;100.00
13734;BME280;43298;52.560;13.508;2022-11-20T09:38:47;100212.16;;;0.78;100.00
13734;BME280;43298;52.560;13.508;2022-11-20T09:47:26;100210.38;;;0.88;100.00
13734;BME280;43298;52.560;13.508;2022-11-20T09:53:33;100209.44;;;0.96;100.00
13734;BME280;43298;52.560;13.508;2022-11-20T09:56:02;100207.81;;;0.89;100.00
13734;BME280;43298;52.560;13.508;2022-11-20T09:58:46;100209.50;;;0.90;100.00
13734;BME280;43298;52.560;13.508;2022-11-20T10:01:20;100211.03;;;1.03;100.00
13734;BME280;43298;52.560;13.508;2022-11-20T10:04:15;100207.69;;;1.01;100.00
13734;BME280;43298;52.560;13.508;2022-11-20T10:07:06;100206.03;;;0.96;100.00
13734;BME280;43298;52.560;13.508;2022-11-20T10:09:40;100200.00;;;1.06;100.00
13734;BME280;43298;52.560;13.508;2022-11-20T10:24:48;100183.47;;;1.35;100.00
13734;BME280;43298;52.560;13.508;2022-11-20T10:27:26;100190.25;;;1.36;100.00
13734;BME280;43298;52.560;13.508;2022-11-20T10:30:18;100186.25;;;1.17;100.00
13734;BME280;43298;52.560;13.508;2022-11-20T10:32:54;100176.19;;;1.10;100.00
13734;BME280;43298;52.560;13.508;2022-11-20T10:35:25;100173.72;;;1.02;100.00
13734;BME280;43298;52.560;13.508;2022-11-20T10:38:05;100180.47;;;1.03;100.00
13734;BME280;43298;52.560;13.508;2022-11-20T10:40:46;100175.44;;;1.02;100.00
13734;BME280;43298;52.560;13.508;2022-11-20T10:43:32;100166.81;;;1.12;100.00
13734;BME280;43298;52.560;13.508;2022-11-20T10:46:29;100169.19;;;1.27;100.00
13734;BME280;43298;52.560;13.508;2022-11-20T10:48:58;100164.91;;;1.27;100.00
13734;BME280;43298;52.560;13.508;2022-11-20T10:51:40;100160.84;;;1.14;100.00
13734;BME280;43298;52.560;13.508;2022-11-20T10:54:30;100168.50;;;1.14;100.00
13734;BME280;43298;52.560;13.508;2022-11-20T10:57:17;100168.44;;;1.17;100.00
13734;BME280;43298;52.560;13.508;2022-11-20T11:00:07;100165.88;;;1.17;100.00
13734;BME280;43298;52.560;13.508;2022-11-20T11:02:43;100166.53;;;1.33;100.00
13734;BME280;43298;52.560;13.508;2022-11-20T11:07:56;100166.81;;;1.71;100.00
13734;BME280;43298;52.560;13.508;2022-11-20T11:12:55;100165.38;;;2.06;100.00
13734;BME280;43298;52.560;13.508;2022-11-20T11:15:38;100169.81;;;1.95;100.00
13734;BME280;43298;52.560;13.508;2022-11-20T11:18:04;100174.31;;;1.80;100.00
13734;BME280;43298;52.560;13.508;2022-11-20T11:20:31;100175.22;;;1.77;100.00
13734;BME280;43298;52.560;13.508;2022-11-20T11:22:59;100167.69;;;1.71;100.00
13734;BME280;43298;52.560;13.508;2022-11-20T11:25:35;100169.63;;;1.54;100.00
13734;BME280;43298;52.560;13.508;2022-11-20T11:30:45;100167.31;;;1.39;100.00
13734;BME280;43298;52.560;13.508;2022-11-20T11:33:23;100164.81;;;1.33;100.00
13734;BME280;43298;52.560;13.508;2022-11-20T11:35:54;100164.75;;;1.41;100.00
13734;BME280;43298;52.560;13.508;2022-11-20T11:38:43;100158.91;;;1.31;100.00
13734;BME280;43298;52.560;13.508;2022-11-20T11:41:25;100157.22;;;1.30;100.00
13734;BME280;43298;52.560;13.508;2022-11-20T11:44:02;100157.94;;;1.40;100.00
13734;BME280;43298;52.560;13.508;2022-11-20T11:46:56;100145.22;;;1.38;100.00
13734;BME280;43298;52.560;13.508;2022-11-20T11:49:23;100155.38;;;1.40;100.00
13734;BME280;43298;52.560;13.508;2022-11-20T11:57:49;100151.59;;;1.66;100.00
13734;BME280;43298;52.560;13.508;2022-11-20T12:00:20;100150.84;;;1.60;100.00
13734;BME280;43298;52.560;13.508;2022-11-20T12:05:42;100144.31;;;1.42;100.00
13734;BME280;43298;52.560;13.508;2022-11-20T12:11:20;100151.38;;;1.24;100.00
13734;BME280;43298;52.560;13.508;2022-11-20T12:16:45;100152.34;;;1.15;100.00
13734;BME280;43298;52.560;13.508;2022-11-20T12:19:13;100146.34;;;1.19;100.00
13734;BME280;43298;52.560;13.508;2022-11-20T12:24:45;100137.41;;;1.50;100.00
13734;BME280;43298;52.560;13.508;2022-11-20T12:30:21;100131.75;;;1.32;100.00
13734;BME280;43298;52.560;13.508;2022-11-20T12:42:25;100127.63;;;1.22;100.00
13734;BME280;43298;52.560;13.508;2022-11-20T12:45:32;100119.06;;;1.27;100.00
13734;BME280;43298;52.560;13.508;2022-11-20T12:54:27;100109.88;;;1.16;100.00
13734;BME280;43298;52.560;13.508;2022-11-20T13:02:44;100103.72;;;1.33;100.00
13734;BME280;43298;52.560;13.508;2022-11-20T13:05:41;100096.84;;;1.38;100.00
13734;BME280;43298;52.560;13.508;2022-11-20T13:11:34;100091.22;;;1.73;100.00
13734;BME280;43298;52.560;13.508;2022-11-20T13:14:27;100086.66;;;1.88;100.00
13734;BME280;43298;52.560;13.508;2022-11-20T13:19:37;100092.66;;;1.86;100.00
13734;BME280;43298;52.560;13.508;2022-11-20T13:22:04;100091.88;;;1.84;100.00
13734;BME280;43298;52.560;13.508;2022-11-20T13:24:32;100089.34;;;1.82;100.00
13734;BME280;43298;52.560;13.508;2022-11-20T13:27:17;100093.63;;;1.79;100.00
13734;BME280;43298;52.560;13.508;2022-11-20T13:29:58;100088.41;;;1.86;100.00
13734;BME280;43298;52.560;13.508;2022-11-20T13:32:26;100085.03;;;1.86;100.00
13734;BME280;43298;52.560;13.508;2022-11-20T13:35:04;100088.47;;;1.83;100.00
13734;BME280;43298;52.560;13.508;2022-11-20T13:37:34;100080.00;;;1.81;100.00
13734;BME280;43298;52.560;13.508;2022-11-20T13:43:01;100081.84;;;1.73;100.00
13734;BME280;43298;52.560;13.508;2022-11-20T13:45:30;100080.38;;;1.60;100.00
13734;BME280;43298;52.560;13.508;2022-11-20T13:48:01;100089.81;;;1.54;100.00
13734;BME280;43298;52.560;13.508;2022-11-20T13:55:59;100084.94;;;1.40;100.00
13734;BME280;43298;52.560;13.508;2022-11-20T13:59:04;100086.63;;;1.40;100.00
13734;BME280;43298;52.560;13.508;2022-11-20T14:01:35;100091.72;;;1.40;100.00
13734;BME280;43298;52.560;13.508;2022-11-20T14:04:07;100094.41;;;1.32;100.00
13734;BME280;43298;52.560;13.508;2022-11-20T14:06:42;100093.53;;;1.33;100.00
13734;BME280;43298;52.560;13.508;2022-11-20T14:09:30;100100.28;;;1.34;100.00
13734;BME280;43298;52.560;13.508;2022-11-20T14:11:56;100103.69;;;1.35;100.00
13734;BME280;43298;52.560;13.508;2022-11-20T14:14:30;100097.03;;;1.26;100.00
13734;BME280;43298;52.560;13.508;2022-11-20T14:17:17;100102.06;;;1.29;100.00
13734;BME280;43298;52.560;13.508;2022-11-20T14:19:45;100109.75;;;1.26;100.00
13734;BME280;43298;52.560;13.508;2022-11-20T14:22:22;100102.31;;;1.14;100.00
13734;BME280;43298;52.560;13.508;2022-11-20T14:25:42;100106.63;;;1.08;100.00
13734;BME280;43298;52.560;13.508;2022-11-20T14:27:55;100107.53;;;1.02;100.00
13734;BME280;43298;52.560;13.508;2022-11-20T14:33:03;100099.09;;;1.00;100.00
13734;BME280;43298;52.560;13.508;2022-11-20T14:35:35;100109.22;;;1.03;100.00